Latest Coastal Weather Observations for Cape Naturaliste

IDW60701

Issued at 8:02 pm WST Friday 27 March 2015 (issued every 10 minutes, with the page automatically refreshed every 10 minutes)

About coastal observations | Map of coastal stations | Coastal observations for WA | Marine services | Other Formats
Station Details ID: 009519 Name: CAPE NATURALISTE Lat: -33.54 Lon: 115.02 Height: 109.0 m
Data from the previous 72 hours. | See also: Recent months at Cape Naturaliste
Date/Time
WST
Temp

°C
Wind Pressure Rain
since 9am
mm
Weather Cloud Vis
km
Sea
Height
m
Swell
Dir
 
Speed
knots
Gust
knots
hPa Trend Height
m
Period
s
Dir
27/08:00pm 17.6 SSW 12 15 1019.6 - 0.0 - - - - - - -
27/07:30pm 18.2 SSW 15 21 1019.4 - 0.0 - - - - - - -
27/07:00pm 18.7 SSW 16 22 1019.0 - 0.0 - - - - - - -
27/06:30pm 19.1 SSW 17 22 1018.9 - 0.0 - - - - - - -
27/06:00pm 19.9 SSW 17 22 1018.9 - 0.0 - - - - - - -
27/05:30pm 20.8 SSW 17 22 1018.9 - 0.0 - - - - - - -
27/05:00pm 21.4 SW 15 20 1019.0 - 0.0 - - - - - - -
27/04:30pm 22.7 SW 14 18 1018.9 - 0.0 - - - - - - -
27/04:00pm 23.1 WSW 13 15 1018.9 - 0.0 - - - - - - -
27/03:30pm 24.1 W 10 13 1019.0 - 0.0 - - - - - - -
27/03:00pm 24.7 W 8 11 1019.1 - 0.0 - - - - - - -
27/02:30pm 24.8 NNW 7 9 1019.2 - 0.0 - - - - - - -
27/02:00pm 24.0 NNE 6 8 1019.2 - 0.0 - - - - - - -
27/01:30pm 23.7 NNE 7 9 1019.7 - 0.0 - - - - - - -
27/01:00pm 24.0 NNE 7 9 1020.0 - 0.0 - - - - - - -
27/12:30pm 23.5 NE 7 9 1020.3 - 0.0 - - - - - - -
27/12:00pm 23.5 NE 8 10 1020.5 - 0.0 - - - - - - -
27/11:30am 23.7 NE 8 11 1020.9 - 0.0 - - - - - - -
27/11:00am 23.4 NE 9 11 1021.3 - 0.0 - - - - - - -
27/10:30am 23.2 NE 10 12 1021.3 - 0.0 - - - - - - -
27/10:00am 22.8 NE 11 13 1021.5 - 0.0 - - - - - - -
27/09:30am 22.2 NE 11 13 1021.6 - 0.0 - - - - - - -
27/09:00am 22.0 NE 9 11 1021.6 - 0.0 - - - - - - -
27/08:30am 20.8 ENE 10 12 1021.4 - 0.0 - - - - - - -
27/08:00am 19.4 E 9 11 1021.3 - 0.0 - - - - - - -
27/07:30am 19.7 ENE 11 15 1021.1 - 0.0 - - - - - - -
27/07:00am 17.9 ENE 9 11 1020.9 - 0.0 - - - - - - -
27/06:30am 17.9 E 10 11 1020.7 - 0.0 - - - - - - -
27/06:00am 18.2 E 10 12 1020.5 - 0.0 - - - - - - -
27/05:30am 18.2 E 10 14 1020.5 - 0.0 - - - - - - -
27/05:00am 18.3 ESE 8 10 1020.5 - 0.0 - - - - - - -
27/04:30am 19.0 E 8 11 1020.3 - 0.0 - - - - - - -
27/04:00am 19.2 ENE 9 13 1020.3 - 0.0 - - - - - - -
27/03:30am 19.6 ENE 12 16 1020.4 - 0.0 - - - - - - -
27/03:00am 19.2 NE 11 14 1020.5 - 0.0 - - - - - - -
27/02:30am 19.6 NE 14 18 1020.5 - 0.0 - - - - - - -
27/02:00am 20.0 NNE 15 20 1020.8 - 0.0 - - - - - - -
27/01:30am 20.2 N 13 17 1021.0 - 0.0 - - - - - - -
27/01:00am 20.6 N 16 21 1021.1 - 0.0 - - - - - - -
27/12:30am 20.9 N 10 14 1021.2 - 0.0 - - - - - - -
27/12:00am 20.3 E 12 15 1021.1 - 0.0 - - - - - - -
 
Date/Time
WST
Temp

°C
Wind Pressure Rain
since 9am
mm
Weather Cloud Vis
km
Sea
Height
m
Swell
Dir
 
Speed
knots
Gust
knots
hPa Trend Height
m
Period
s
Dir
26/11:30pm 21.2 E 13 16 1020.9 - 0.0 - - - - - - -
26/11:00pm 21.6 ESE 12 16 1020.9 - 0.0 - - - - - - -
26/10:30pm 20.9 SE 11 14 1020.9 - 0.0 - - - - - - -
26/10:00pm 20.9 SE 11 15 1021.1 - 0.0 - - - - - - -
26/09:30pm 20.4 SE 11 16 1021.0 - 0.0 - - - - - - -
26/09:00pm 21.0 SSE 12 16 1021.2 - 0.0 - - - - - - -
26/08:30pm 21.3 SSE 12 17 1021.3 - 0.0 - - - - - - -
26/08:00pm 21.4 SSE 12 17 1021.2 - 0.0 - - - - - - -
26/07:30pm 21.7 SSE 13 17 1021.2 - 0.0 - - - - - - -
26/07:00pm 22.1 SSE 13 17 1021.0 - 0.0 - - - - - - -
26/06:30pm 22.4 S 11 14 1020.9 - 0.0 - - - - - - -
26/06:00pm 22.9 SSW 11 14 1021.2 - 0.0 - - - - - - -
26/05:30pm 23.3 SSW 12 15 1021.1 - 0.0 - - - - - - -
26/05:00pm 23.4 SSW 10 13 1021.1 - 0.0 - - - - - - -
26/04:30pm 23.8 SW 10 12 1021.0 - 0.0 - - - - - - -
26/04:00pm 23.8 SW 11 16 1021.0 - 0.0 - - - - - - -
26/03:30pm 24.7 SW 10 14 1021.3 - 0.0 - - - - - - -
26/03:00pm 25.1 SW 10 14 1021.4 - 0.0 - - - - - - -
26/02:30pm 27.3 SE 7 9 1021.7 - 0.0 - - - - - - -
26/02:00pm 26.6 E 9 11 1021.9 - 0.0 - - - - - - -
26/01:30pm 25.0 E 11 14 1022.3 - 0.0 - - - - - - -
26/01:00pm 24.2 E 13 17 1022.6 - 0.0 - - - - - - -
26/12:30pm 23.2 E 15 18 1023.0 - 0.0 - - - - - - -
26/12:00pm 22.7 E 16 19 1023.3 - 0.0 - - - - - - -
26/11:30am 22.0 E 16 20 1023.6 - 0.0 - - - - - - -
26/11:00am 21.0 ESE 18 22 1023.8 - 0.0 - - - - - - -
26/10:30am 20.7 ESE 17 22 1024.1 - 0.0 - - - - - - -
26/10:00am 19.7 ESE 18 22 1024.2 - 0.0 - - - - - - -
26/09:30am 18.8 E 20 24 1024.4 - 0.0 - - - - - - -
26/09:00am 18.2 ESE 19 24 1024.4 - 0.0 - - - - - - -
26/08:30am 17.5 ESE 19 23 1024.5 - 0.0 - - - - - - -
26/08:00am 16.8 ESE 20 27 1024.5 - 0.0 - - - - - - -
26/07:30am 16.2 ESE 20 25 1024.7 - 0.0 - - - - - - -
26/07:00am 15.6 E 20 24 1024.7 - 0.0 - - - - - - -
26/06:30am 15.3 E 20 25 1024.5 - 0.0 - - - - - - -
26/06:00am 15.4 E 20 25 1024.4 - 0.0 - - - - - - -
26/05:30am 15.5 E 20 26 1024.3 - 0.0 - - - - - - -
26/05:00am 15.8 E 21 26 1024.2 - 0.0 - - - - - - -
26/04:30am 15.8 E 20 26 1024.1 - 0.0 - - - - - - -
26/04:00am 16.0 E 21 27 1024.1 - 0.0 - - - - - - -
26/03:30am 16.1 E 21 27 1024.2 - 0.0 - - - - - - -
26/03:00am 16.1 E 20 26 1024.4 - 0.0 - - - - - - -
26/02:30am 15.9 E 19 25 1024.4 - 0.0 - - - - - - -
26/02:00am 15.8 E 19 26 1024.6 - 0.0 - - - - - - -
26/01:30am 15.7 ESE 17 23 1024.8 - 0.0 - - - - - - -
26/01:00am 16.1 ESE 19 24 1024.9 - 0.0 - - - - - - -
26/12:30am 16.4 E 19 27 1024.9 - 0.0 - - - - - - -
26/12:00am 16.8 E 21 29 1024.7 - 0.0 - - - - - - -
 
Date/Time
WST
Temp

°C
Wind Pressure Rain
since 9am
mm
Weather Cloud Vis
km
Sea
Height
m
Swell
Dir
 
Speed
knots
Gust
knots
hPa Trend Height
m
Period
s
Dir
25/11:30pm 17.3 E 20 26 1024.6 - 0.0 - - - - - - -
25/11:00pm 18.0 E 20 26 1024.6 - 0.0 - - - - - - -
25/10:30pm 18.4 E 18 24 1024.3 - 0.0 - - - - - - -
25/10:00pm 19.0 ESE 18 24 1024.2 - 0.0 - - - - - - -
25/09:41pm 19.0 ESE 16 26 1024.2 - 0.0 - - - - - - -
25/09:30pm 19.0 ESE 17 22 1024.1 - 0.0 - - - - - - -
25/09:00pm 19.5 ESE 16 22 1024.1 - 0.0 - - - - - - -
25/08:30pm 20.0 ESE 15 19 1023.8 - 0.0 - - - - - - -
25/08:00pm 20.4 ESE 14 19 1023.7 - 0.0 - - - - - - -
25/07:30pm 20.5 ESE 12 18 1023.7 - 0.0 - - - - - - -
25/07:00pm 19.0 SE 6 10 1023.8 - 0.0 - - - - - - -
25/06:30pm 19.3 SW 4 5 1023.6 - 0.0 - - - - - - -
25/06:00pm 20.8 SW 7 9 1023.5 - 0.0 - - - - - - -
25/05:30pm 21.7 SW 8 10 1023.5 - 0.0 - - - - - - -
25/05:00pm 22.2 SW 9 12 1023.5 - 0.0 - - - - - - -
25/04:30pm 22.0 SW 11 14 1023.5 - 0.0 - - - - - - -
25/04:00pm 22.6 SW 11 14 1023.7 - 0.0 - - - - - - -
25/03:30pm 22.2 WSW 10 13 1024.0 - 0.0 - - - - - - -
25/03:00pm 23.3 SW 10 13 1024.3 - 0.0 - - - - - - -
25/02:30pm 25.1 E 7 10 1024.2 - 0.0 - - - - - - -
25/02:00pm 24.6 ENE 7 9 1024.5 - 0.0 - - - - - - -
25/01:30pm 23.8 E 9 11 1024.9 - 0.0 - - - - - - -
25/01:00pm 23.2 E 9 12 1025.3 - 0.0 - - - - - - -
25/12:30pm 22.5 E 9 12 1025.5 - 0.0 - - - - - - -
25/12:00pm 21.3 E 9 13 1025.9 - 0.0 - - - - - - -
25/11:30am 20.4 E 9 11 1026.2 - 0.0 - - - - - - -
25/11:00am 19.9 E 10 14 1026.6 - 0.0 - - - - - - -
25/10:30am 19.3 E 12 16 1026.6 - 0.0 - - - - - - -
25/10:00am 19.4 E 11 15 1026.6 - 0.0 - - - - - - -
25/09:30am 18.5 E 12 15 1026.7 - 0.0 - - - - - - -
25/09:00am 17.9 ESE 13 17 1026.6 - 0.0 - - - - - - -
25/08:30am 17.4 ESE 13 16 1026.5 - 0.0 - - - - - - -
25/08:00am 16.6 E 13 17 1026.4 - 0.0 - - - - - - -
25/07:30am 15.6 ESE 11 15 1026.3 - 0.0 - - - - - - -
25/07:00am 13.7 ESE 10 14 1025.9 - 0.0 - - - - - - -
25/06:30am 12.8 ESE 12 15 1025.6 - 0.0 - - - - - - -
25/06:00am 13.0 ESE 11 13 1025.4 - 0.0 - - - - - - -
25/05:30am 13.5 ESE 11 16 1025.1 - 0.0 - - - - - - -
25/05:00am 13.2 ESE 12 15 1025.0 - 0.0 - - - - - - -
25/04:30am 12.9 ESE 11 14 1024.9 - 0.0 - - - - - - -
25/04:00am 13.1 ESE 12 15 1024.6 - 0.0 - - - - - - -
25/03:30am 13.1 ESE 11 15 1024.6 - 0.0 - - - - - - -
25/03:00am 13.3 ESE 11 15 1024.5 - 0.0 - - - - - - -
25/02:30am 13.3 ESE 12 16 1024.4 - 0.0 - - - - - - -
25/02:00am 13.7 SE 13 16 1024.3 - 0.0 - - - - - - -
25/01:30am 14.1 SE 14 19 1024.2 - 0.0 - - - - - - -
25/01:00am 14.4 SE 15 20 1024.2 - 0.0 - - - - - - -
25/12:30am 14.4 SE 14 17 1024.3 - 0.0 - - - - - - -
25/12:00am 14.5 SE 13 19 1024.3 - 0.0 - - - - - - -
 
Date/Time
WST
Temp

°C
Wind Pressure Rain
since 9am
mm
Weather Cloud Vis
km
Sea
Height
m
Swell
Dir
 
Speed
knots
Gust
knots
hPa Trend Height
m
Period
s
Dir
24/11:30pm 14.6 SE 13 19 1024.3 - 0.0 - - - - - - -
24/11:00pm 14.5 SE 14 18 1024.2 - 0.0 - - - - - - -
24/10:30pm 14.2 SSE 12 16 1024.5 - 0.0 - - - - - - -
24/10:00pm 14.6 SSE 12 15 1024.8 - 0.0 - - - - - - -
24/09:30pm 15.2 S 15 21 1024.7 - 0.0 - - - - - - -
24/09:00pm 15.6 S 19 26 1024.4 - 0.0 - - - - - - -
24/08:30pm 15.7 S 18 24 1024.3 - 0.0 - - - - - - -

Other Formats:

Comma delimited format used in spreadsheet applications
http://www.bom.gov.au/fwo/IDW60701/IDW60701.94600.axf

JavaScript Object Notation format (JSON) in row-major order
http://www.bom.gov.au/fwo/IDW60701/IDW60701.94600.json